Time;durP1;ratioP1;P1;durP2;ratioP2;P2;SDS_P1;SDS_P2;PMS_P1;PMS_P2;Temp;Humidity;BMP_temperature;BMP_pressure;BME280_temperature;BME280_humidity;BME280_pressure;Samples;Min_cycle;Max_cycle;Signal;HPM_P1;HPM_P2
2022/10/26 00:01:12;;;;;;;21.08;14.98;;;9.10;99.90;;;;;;4957294;28;20049;-76
2022/10/26 00:03:39;;;;;;;17.40;13.75;;;9.00;99.90;;;;;;4965460;28;20412;-76
2022/10/26 00:06:20;;;;;;;18.95;13.77;;;9.00;99.90;;;;;;4964205;28;20049;-76
2022/10/26 00:08:46;;;;;;;20.00;14.30;;;8.90;99.90;;;;;;4957564;28;20437;-76
2022/10/26 00:11:12;;;;;;;17.20;13.88;;;8.90;99.90;;;;;;4974279;28;20034;-76
2022/10/26 00:13:39;;;;;;;15.70;12.75;;;8.90;99.90;;;;;;4974707;28;20048;-76
2022/10/26 00:16:23;;;;;;;19.58;14.32;;;8.90;99.90;;;;;;4991103;28;20485;-76
2022/10/26 00:18:49;;;;;;;16.23;13.68;;;8.80;99.90;;;;;;4966122;28;20045;-76
2022/10/26 00:21:15;;;;;;;21.15;15.75;;;8.80;99.90;;;;;;4960846;28;20039;-76
2022/10/26 00:23:41;;;;;;;18.52;14.63;;;8.80;99.90;;;;;;4983030;28;20043;-75
2022/10/26 00:26:07;;;;;;;15.88;14.25;;;8.80;99.90;;;;;;4972188;28;20034;-75
2022/10/26 00:28:33;;;;;;;21.73;16.42;;;8.80;99.90;;;;;;4984698;28;20105;-75
2022/10/26 00:31:04;;;;;;;20.73;15.40;;;8.70;99.90;;;;;;4971207;28;20046;-75
2022/10/26 00:33:31;;;;;;;16.33;14.60;;;8.70;99.90;;;;;;4971108;28;20042;-75
2022/10/26 00:35:57;;;;;;;22.05;16.52;;;8.70;99.90;;;;;;4955650;28;20058;-76
2022/10/26 00:38:22;;;;;;;19.60;14.88;;;8.70;99.90;;;;;;4957879;28;20042;-75
2022/10/26 00:40:48;;;;;;;17.83;15.48;;;8.70;99.90;;;;;;4974489;28;20100;-75
2022/10/26 00:43:32;;;;;;;21.08;16.20;;;8.70;99.90;;;;;;4973564;28;20458;-75
2022/10/26 00:46:00;;;;;;;23.45;18.38;;;8.80;99.90;;;;;;4976525;28;20317;-75
2022/10/26 00:48:38;;;;;;;23.58;16.95;;;8.70;99.90;;;;;;4993499;28;20053;-75
2022/10/26 00:51:21;;;;;;;23.50;17.70;;;8.70;99.90;;;;;;4993238;28;20042;-75
2022/10/26 00:53:47;;;;;;;22.85;17.73;;;8.70;99.90;;;;;;4976089;28;20042;-75
2022/10/26 00:56:13;;;;;;;18.83;16.02;;;8.70;99.90;;;;;;4966614;28;20030;-75
2022/10/26 00:58:39;;;;;;;23.00;16.85;;;8.70;99.90;;;;;;4971477;28;20096;-75
2022/10/26 01:01:05;;;;;;;27.02;19.88;;;8.70;99.90;;;;;;4977452;28;20129;-75
2022/10/26 01:03:33;;;;;;;29.70;19.33;;;8.60;99.90;;;;;;4992773;28;20154;-75
2022/10/26 01:05:59;;;;;;;29.50;20.65;;;8.70;99.90;;;;;;4961178;28;20101;-75
2022/10/26 01:08:27;;;;;;;26.48;20.20;;;8.60;99.90;;;;;;4970811;28;20038;-75
2022/10/26 01:10:54;;;;;;;27.67;19.17;;;8.70;99.90;;;;;;4976521;28;20108;-76
2022/10/26 01:13:20;;;;;;;22.60;18.55;;;8.70;99.90;;;;;;4977306;28;20431;-75
2022/10/26 01:16:01;;;;;;;24.65;18.67;;;8.70;99.90;;;;;;4970165;28;20134;-75
2022/10/26 01:18:40;;;;;;;30.23;21.85;;;8.70;99.90;;;;;;4957570;28;20078;-75
2022/10/26 01:21:36;;;;;;;34.53;21.63;;;8.70;99.90;;;;;;4957995;28;20050;-75
2022/10/26 01:24:22;;;;;;;32.38;22.65;;;8.70;99.90;;;;;;4989712;28;20056;-75
2022/10/26 01:27:07;;;;;;;25.95;19.92;;;8.70;99.90;;;;;;4992995;28;20042;-75
2022/10/26 01:30:09;;;;;;;32.50;22.58;;;8.70;99.90;;;;;;4979998;28;20078;-75
2022/10/26 01:32:56;;;;;;;34.50;22.80;;;8.70;99.90;;;;;;4972565;28;20042;-75
2022/10/26 01:35:28;;;;;;;30.65;23.20;;;8.70;99.90;;;;;;4966115;28;20042;-75
2022/10/26 01:38:01;;;;;;;29.83;22.00;;;8.70;99.90;;;;;;4972950;28;20133;-75
2022/10/26 01:40:36;;;;;;;34.38;23.45;;;8.70;99.90;;;;;;4976727;28;20101;-75
2022/10/26 01:43:06;;;;;;;35.75;23.33;;;8.80;99.90;;;;;;4976671;28;20081;-75
2022/10/26 01:45:34;;;;;;;30.77;22.92;;;8.70;99.90;;;;;;4971518;28;20400;-75
2022/10/26 01:50:30;;;;;;;28.02;21.23;;;8.80;99.90;;;;;;5008725;28;20042;-76
2022/10/26 01:52:56;;;;;;;24.70;19.58;;;8.70;99.90;;;;;;5003915;28;20050;-76
2022/10/26 01:55:40;;;;;;;25.67;19.00;;;8.80;99.90;;;;;;5008097;28;20060;-76
2022/10/26 01:58:28;;;;;;;31.67;21.85;;;8.70;99.90;;;;;;4994717;28;20049;-76
2022/10/26 02:01:30;;;;;;;29.65;21.80;;;8.70;99.90;;;;;;4992913;28;20262;-76
2022/10/26 02:04:18;;;;;;;29.10;21.92;;;8.70;99.90;;;;;;4987111;28;20488;-77
2022/10/26 02:06:59;;;;;;;31.73;22.63;;;8.70;99.90;;;;;;4974616;28;20432;-77
2022/10/26 02:09:33;;;;;;;33.22;24.00;;;8.70;99.90;;;;;;4979284;28;20045;-76
2022/10/26 02:12:05;;;;;;;32.78;24.23;;;8.70;99.90;;;;;;4979216;28;20374;-76
2022/10/26 02:14:48;;;;;;;35.50;23.90;;;8.80;99.90;;;;;;5002735;28;20046;-76
2022/10/26 02:17:26;;;;;;;37.88;25.02;;;8.80;99.90;;;;;;5013637;28;20387;-76
2022/10/26 02:20:02;;;;;;;33.55;24.77;;;8.80;99.90;;;;;;4994630;28;20460;-76
2022/10/26 02:22:49;;;;;;;33.15;25.05;;;8.80;99.90;;;;;;4976397;28;20388;-76
2022/10/26 02:25:33;;;;;;;35.42;26.75;;;8.80;99.90;;;;;;4975936;28;20042;-76
2022/10/26 02:28:03;;;;;;;38.00;26.25;;;8.80;99.90;;;;;;4980182;28;20092;-76
2022/10/26 02:30:30;;;;;;;38.65;26.02;;;8.80;99.90;;;;;;4974070;28;20088;-76
2022/10/26 02:32:58;;;;;;;36.38;25.80;;;8.80;99.90;;;;;;4994164;28;20045;-76
2022/10/26 02:35:28;;;;;;;34.28;26.33;;;8.80;99.90;;;;;;4986515;28;20041;-76
2022/10/26 02:37:56;;;;;;;32.58;24.00;;;8.80;99.90;;;;;;4994410;28;20046;-76
2022/10/26 02:40:25;;;;;;;28.20;23.73;;;8.80;99.90;;;;;;5006373;28;20483;-76
2022/10/26 02:42:52;;;;;;;37.67;26.35;;;8.80;99.90;;;;;;5014566;28;20045;-76
2022/10/26 02:45:27;;;;;;;32.05;24.23;;;8.80;99.90;;;;;;5014607;28;20041;-76
2022/10/26 02:47:53;;;;;;;41.53;26.98;;;8.80;99.90;;;;;;4979417;28;20048;-76
2022/10/26 02:50:25;;;;;;;32.45;24.67;;;8.80;99.90;;;;;;4994616;28;20518;-76
2022/10/26 02:52:50;;;;;;;35.65;25.42;;;8.90;99.90;;;;;;5000585;28;20122;-76
2022/10/26 02:55:26;;;;;;;33.40;26.60;;;8.90;99.90;;;;;;4989158;28;20074;-77
2022/10/26 02:57:58;;;;;;;31.92;25.00;;;8.90;99.90;;;;;;4995837;28;20044;-77
2022/10/26 03:00:23;;;;;;;39.58;26.48;;;9.00;99.90;;;;;;4978566;28;20508;-77
2022/10/26 03:02:56;;;;;;;32.97;25.88;;;9.00;99.90;;;;;;4994817;28;20042;-77
2022/10/26 03:05:31;;;;;;;31.77;24.10;;;9.00;99.90;;;;;;4980882;28;20029;-77
2022/10/26 03:07:57;;;;;;;32.80;24.50;;;9.10;99.90;;;;;;5004331;28;20055;-76
2022/10/26 03:10:23;;;;;;;34.42;24.52;;;9.10;99.90;;;;;;4982057;28;20065;-76
2022/10/26 03:12:49;;;;;;;34.92;24.98;;;9.10;99.90;;;;;;4998845;28;20070;-76
2022/10/26 03:15:15;;;;;;;33.50;24.05;;;9.10;99.90;;;;;;4992588;28;20034;-76
2022/10/26 03:17:41;;;;;;;32.35;24.00;;;9.10;99.90;;;;;;4994061;28;20045;-76
2022/10/26 03:20:07;;;;;;;33.25;24.02;;;9.10;99.90;;;;;;4994388;28;20048;-76
2022/10/26 03:22:33;;;;;;;34.00;23.98;;;9.10;99.90;;;;;;4978200;28;20048;-76
2022/10/26 03:24:59;;;;;;;29.05;22.67;;;9.10;99.90;;;;;;4977303;28;20037;-76
2022/10/26 03:27:25;;;;;;;32.72;25.00;;;9.10;99.90;;;;;;4993504;28;20042;-76
2022/10/26 03:29:51;;;;;;;33.20;24.42;;;9.10;99.90;;;;;;4985185;28;20489;-76
2022/10/26 03:32:17;;;;;;;30.83;22.98;;;9.10;99.90;;;;;;4991590;28;20045;-76
2022/10/26 03:34:43;;;;;;;31.20;22.77;;;9.10;99.90;;;;;;4978242;28;20038;-76
2022/10/26 03:37:08;;;;;;;29.83;22.25;;;9.10;99.90;;;;;;4993177;28;20074;-76
2022/10/26 03:39:34;;;;;;;32.60;23.33;;;9.20;99.90;;;;;;4976805;28;20113;-76
2022/10/26 03:41:59;;;;;;;26.38;22.23;;;9.10;99.90;;;;;;5002309;28;20042;-76
2022/10/26 03:44:25;;;;;;;27.65;22.88;;;9.10;99.90;;;;;;4993395;28;20034;-76
2022/10/26 03:46:50;;;;;;;30.85;23.30;;;9.10;99.90;;;;;;4993999;28;20103;-76
2022/10/26 03:49:16;;;;;;;29.45;22.70;;;9.10;99.90;;;;;;4993751;28;20041;-76
2022/10/26 03:51:41;;;;;;;36.83;23.92;;;9.10;99.90;;;;;;4994367;28;20484;-76
2022/10/26 03:54:07;;;;;;;30.90;22.63;;;9.10;99.90;;;;;;4978039;28;20067;-76
2022/10/26 03:56:33;;;;;;;30.40;22.30;;;9.10;99.90;;;;;;5005672;28;20049;-76
2022/10/26 03:58:59;;;;;;;32.13;22.90;;;9.00;99.90;;;;;;4980499;28;20041;-76
2022/10/26 04:01:24;;;;;;;30.10;23.75;;;9.00;99.90;;;;;;4977742;28;20040;-76
2022/10/26 04:03:50;;;;;;;30.80;23.95;;;9.00;99.90;;;;;;4994048;28;20038;-76
2022/10/26 04:06:16;;;;;;;37.88;25.20;;;9.00;99.90;;;;;;4979648;28;20096;-76
2022/10/26 04:08:41;;;;;;;29.23;22.60;;;9.00;99.90;;;;;;4980409;28;20467;-76
2022/10/26 04:11:07;;;;;;;31.02;24.42;;;9.00;99.90;;;;;;5001038;28;20070;-76
2022/10/26 04:13:32;;;;;;;31.95;24.40;;;9.10;99.90;;;;;;4993861;28;20042;-76
2022/10/26 04:15:58;;;;;;;36.70;26.10;;;9.10;99.90;;;;;;4977686;28;20131;-76
2022/10/26 04:18:24;;;;;;;37.42;26.48;;;9.10;99.90;;;;;;4992909;28;20124;-76
2022/10/26 04:20:49;;;;;;;30.77;24.13;;;9.10;99.90;;;;;;5005804;28;20041;-77
2022/10/26 04:23:16;;;;;;;40.25;25.88;;;9.20;99.90;;;;;;5016292;28;20041;-76
2022/10/26 04:25:43;;;;;;;36.05;25.65;;;9.20;99.90;;;;;;5010457;28;20078;-76
2022/10/26 04:28:10;;;;;;;34.70;24.90;;;9.20;99.90;;;;;;4996366;28;20034;-76
2022/10/26 04:30:37;;;;;;;33.90;24.75;;;9.20;99.90;;;;;;4980906;28;20049;-76
2022/10/26 04:33:04;;;;;;;34.15;25.27;;;9.30;99.90;;;;;;4997799;28;20068;-76
2022/10/26 04:35:30;;;;;;;37.20;25.38;;;9.30;99.90;;;;;;5005251;28;20042;-76
2022/10/26 04:37:58;;;;;;;32.30;24.63;;;9.30;99.90;;;;;;4996091;28;20052;-76
2022/10/26 04:40:23;;;;;;;32.70;23.48;;;9.30;99.90;;;;;;4974370;28;20116;-76
2022/10/26 04:42:49;;;;;;;32.65;25.00;;;9.40;99.90;;;;;;4996279;28;20124;-76
2022/10/26 04:45:15;;;;;;;31.48;24.08;;;9.30;99.90;;;;;;5004580;28;20446;-77
2022/10/26 04:47:42;;;;;;;35.60;24.42;;;9.40;99.90;;;;;;4979946;28;20053;-76
2022/10/26 04:50:09;;;;;;;31.35;24.08;;;9.40;99.90;;;;;;4997285;28;20034;-76
2022/10/26 04:52:35;;;;;;;29.25;23.50;;;9.40;99.90;;;;;;5008316;28;20045;-76
2022/10/26 04:55:04;;;;;;;31.45;23.45;;;9.40;99.90;;;;;;4997862;28;20045;-77
2022/10/26 04:57:32;;;;;;;31.45;24.02;;;9.50;99.90;;;;;;4980464;28;20440;-76
2022/10/26 04:59:58;;;;;;;33.33;23.90;;;9.50;99.90;;;;;;4987031;28;20038;-76
2022/10/26 05:02:23;;;;;;;32.67;24.40;;;9.50;99.90;;;;;;4978749;28;20131;-76
2022/10/26 05:04:49;;;;;;;41.70;24.90;;;9.60;99.90;;;;;;4980790;28;20049;-76
2022/10/26 05:07:14;;;;;;;31.65;23.45;;;9.60;99.90;;;;;;4994970;28;20455;-76
2022/10/26 05:09:40;;;;;;;31.75;23.13;;;9.60;99.90;;;;;;4980516;28;20040;-76
2022/10/26 05:12:05;;;;;;;33.97;23.90;;;9.60;99.90;;;;;;4980444;28;20480;-77
2022/10/26 05:14:31;;;;;;;29.35;23.55;;;9.60;99.90;;;;;;4980817;28;20404;-77
2022/10/26 05:16:57;;;;;;;32.13;23.20;;;9.60;99.90;;;;;;4995033;28;20037;-76
2022/10/26 05:19:22;;;;;;;28.30;22.60;;;9.70;99.90;;;;;;4999616;28;20069;-76
2022/10/26 05:21:48;;;;;;;32.80;23.25;;;9.70;99.90;;;;;;5003837;28;20046;-76
2022/10/26 05:24:13;;;;;;;29.60;23.55;;;9.70;99.90;;;;;;4994864;28;20076;-77
2022/10/26 05:26:39;;;;;;;26.80;20.38;;;9.80;99.90;;;;;;5010293;28;20050;-77
2022/10/26 05:29:05;;;;;;;27.38;21.60;;;9.80;99.90;;;;;;5015836;28;20047;-77
2022/10/26 05:31:30;;;;;;;26.13;20.80;;;9.80;99.90;;;;;;4999112;28;20046;-77
2022/10/26 05:33:56;;;;;;;29.05;20.75;;;9.80;99.90;;;;;;5009381;28;20399;-77
2022/10/26 05:36:21;;;;;;;26.63;21.48;;;9.80;99.90;;;;;;4994670;28;20069;-77
2022/10/26 05:38:47;;;;;;;27.63;20.05;;;9.90;99.90;;;;;;4979670;28;20092;-77
2022/10/26 05:41:12;;;;;;;24.35;19.48;;;9.90;99.90;;;;;;4996330;28;20121;-77
2022/10/26 05:43:38;;;;;;;27.83;19.08;;;9.90;99.90;;;;;;4996124;28;20049;-77
2022/10/26 05:46:04;;;;;;;29.67;21.17;;;9.90;99.90;;;;;;4996117;28;20365;-77
2022/10/26 05:48:29;;;;;;;25.73;20.05;;;9.90;99.90;;;;;;4979076;28;20033;-76
2022/10/26 05:50:59;;;;;;;27.42;17.92;;;10.00;99.90;;;;;;4978630;28;20070;-76
2022/10/26 05:53:25;;;;;;;21.50;17.83;;;9.90;99.90;;;;;;4975852;28;20044;-76
2022/10/26 05:55:51;;;;;;;23.20;17.73;;;9.90;99.90;;;;;;4995703;28;20121;-77
2022/10/26 05:58:17;;;;;;;26.92;18.52;;;9.90;99.90;;;;;;4978725;28;20046;-76
2022/10/26 06:01:23;;;;;;;21.50;17.73;;;10.00;99.90;;;;;;5002214;28;20046;-76
2022/10/26 06:04:34;;;;;;;23.10;17.55;;;10.00;99.90;;;;;;4990469;28;20042;-76
2022/10/26 06:07:01;;;;;;;19.27;16.58;;;10.00;99.90;;;;;;4959440;28;20056;-76
2022/10/26 06:09:27;;;;;;;23.10;17.85;;;10.00;99.90;;;;;;4998766;28;20443;-77
2022/10/26 06:11:53;;;;;;;21.10;17.35;;;10.00;99.90;;;;;;5006073;28;20484;-76
2022/10/26 06:14:18;;;;;;;22.58;17.48;;;10.00;99.90;;;;;;4993277;28;20041;-76
2022/10/26 06:17:23;;;;;;;22.73;17.25;;;10.00;99.90;;;;;;4994475;28;20100;-76
2022/10/26 06:20:07;;;;;;;21.85;16.60;;;10.00;99.90;;;;;;4965929;28;20050;-76
2022/10/26 06:22:59;;;;;;;21.70;16.55;;;10.00;99.90;;;;;;4994909;28;20038;-77
2022/10/26 06:25:47;;;;;;;21.98;16.20;;;10.10;99.90;;;;;;4995442;28;20529;-76
2022/10/26 06:28:28;;;;;;;24.25;16.75;;;10.10;99.90;;;;;;4993371;28;20129;-76
2022/10/26 06:30:55;;;;;;;19.48;15.95;;;10.10;99.90;;;;;;4994161;28;20046;-76
2022/10/26 06:33:20;;;;;;;22.80;15.88;;;10.10;99.90;;;;;;4995112;28;20100;-77
2022/10/26 06:36:22;;;;;;;18.17;15.30;;;10.10;99.90;;;;;;4989146;28;20489;-76
2022/10/26 06:38:51;;;;;;;19.17;15.40;;;10.20;99.90;;;;;;4992272;28;20488;-76
2022/10/26 06:41:18;;;;;;;20.13;15.68;;;10.20;99.90;;;;;;4980615;28;20107;-77
2022/10/26 06:43:44;;;;;;;18.55;15.15;;;10.20;99.90;;;;;;5003668;28;20042;-76
2022/10/26 06:46:28;;;;;;;17.13;14.50;;;10.20;99.90;;;;;;4979661;28;20048;-77
2022/10/26 06:49:18;;;;;;;17.92;14.32;;;10.20;99.90;;;;;;4974696;28;20050;-77
2022/10/26 06:51:57;;;;;;;17.92;14.25;;;10.30;99.90;;;;;;4962425;28;20104;-78
2022/10/26 06:54:29;;;;;;;16.27;13.48;;;10.30;99.90;;;;;;4990609;28;20034;-77
2022/10/26 06:56:55;;;;;;;22.23;14.35;;;10.30;99.90;;;;;;5002788;28;20048;-77
2022/10/26 06:59:47;;;;;;;14.73;13.23;;;10.30;99.90;;;;;;4986698;28;20041;-77
2022/10/26 07:02:13;;;;;;;15.05;12.73;;;10.30;99.90;;;;;;4974512;28;20073;-77
2022/10/26 07:04:43;;;;;;;17.70;13.98;;;10.40;99.90;;;;;;4993742;28;20045;-77
2022/10/26 07:07:12;;;;;;;18.90;13.73;;;10.40;99.90;;;;;;4976578;28;20038;-77
2022/10/26 07:09:38;;;;;;;18.02;13.57;;;10.40;99.90;;;;;;4972860;28;20052;-77
2022/10/26 07:12:05;;;;;;;15.40;13.27;;;10.50;99.90;;;;;;4986602;28;20343;-77
2022/10/26 07:14:30;;;;;;;19.05;14.23;;;10.50;99.90;;;;;;4994281;28;20120;-77
2022/10/26 07:16:56;;;;;;;17.27;12.63;;;10.60;99.90;;;;;;4994473;28;20046;-78
2022/10/26 07:19:22;;;;;;;13.77;12.30;;;10.60;99.90;;;;;;4996923;28;20029;-77
2022/10/26 07:21:48;;;;;;;14.65;12.07;;;10.60;99.90;;;;;;4989503;28;20511;-77
2022/10/26 07:24:13;;;;;;;17.98;13.18;;;10.70;99.90;;;;;;5013989;28;20037;-77
2022/10/26 07:26:39;;;;;;;13.68;12.27;;;10.70;99.90;;;;;;5013875;28;20037;-77
2022/10/26 07:29:04;;;;;;;16.50;12.95;;;10.80;99.90;;;;;;5014016;28;20095;-77
2022/10/26 07:31:30;;;;;;;14.68;12.02;;;10.80;99.90;;;;;;5003424;28;20046;-77
2022/10/26 07:33:55;;;;;;;14.30;12.48;;;10.90;99.90;;;;;;4994332;28;20042;-77
2022/10/26 07:36:21;;;;;;;16.15;12.70;;;10.90;99.90;;;;;;5000824;28;20566;-78
2022/10/26 07:38:50;;;;;;;13.60;11.82;;;11.00;99.90;;;;;;4976983;28;20435;-77
2022/10/26 07:41:16;;;;;;;14.85;11.48;;;11.10;99.90;;;;;;4992774;28;20038;-78
2022/10/26 07:43:44;;;;;;;17.55;12.13;;;11.10;99.90;;;;;;4985851;28;20048;-80
2022/10/26 07:46:09;;;;;;;13.68;10.88;;;11.20;99.90;;;;;;4997751;28;20116;-79
2022/10/26 07:48:35;;;;;;;12.88;11.25;;;11.30;99.90;;;;;;4982597;28;20547;-80
2022/10/26 07:51:01;;;;;;;13.02;10.93;;;11.40;99.90;;;;;;4977317;28;20412;-80
2022/10/26 07:53:27;;;;;;;11.43;10.05;;;11.50;99.90;;;;;;5004897;28;20408;-80
2022/10/26 07:55:54;;;;;;;13.55;10.63;;;11.60;99.90;;;;;;4986254;28;20038;-78
2022/10/26 07:58:22;;;;;;;16.00;10.30;;;11.60;99.90;;;;;;5000383;28;20412;-79
2022/10/26 08:00:49;;;;;;;11.75;10.52;;;11.70;99.90;;;;;;4989498;28;20100;-79
2022/10/26 08:03:15;;;;;;;11.45;10.18;;;11.80;99.90;;;;;;4979520;28;20045;-78
2022/10/26 08:05:41;;;;;;;12.07;10.02;;;11.80;99.90;;;;;;4972158;28;20045;-79
2022/10/26 08:08:07;;;;;;;11.23;9.23;;;11.80;99.90;;;;;;4991791;28;20553;-79
2022/10/26 08:10:32;;;;;;;12.48;9.95;;;11.80;99.90;;;;;;4979485;28;20052;-80
2022/10/26 08:12:58;;;;;;;10.32;8.48;;;11.80;99.90;;;;;;4980513;28;20034;-79
2022/10/26 08:15:23;;;;;;;10.38;7.82;;;11.90;99.90;;;;;;4993203;28;20034;-80
2022/10/26 08:17:49;;;;;;;14.45;9.18;;;11.80;99.90;;;;;;5007307;28;20038;-78
2022/10/26 08:20:15;;;;;;;9.68;8.32;;;11.80;99.90;;;;;;4976376;28;20041;-78
2022/10/26 08:22:40;;;;;;;11.60;8.55;;;11.90;99.90;;;;;;4996420;28;20049;-78
2022/10/26 08:25:06;;;;;;;10.93;8.68;;;11.80;99.90;;;;;;4992415;28;20049;-78
2022/10/26 08:27:32;;;;;;;19.38;9.20;;;11.90;99.90;;;;;;5005579;28;20052;-78
2022/10/26 08:29:57;;;;;;;9.98;8.77;;;12.00;99.90;;;;;;4995750;28;20046;-78
2022/10/26 08:32:23;;;;;;;12.13;8.63;;;12.00;99.90;;;;;;4980479;28;20400;-78
2022/10/26 08:34:48;;;;;;;10.35;8.98;;;12.10;99.90;;;;;;4985032;28;20037;-79
2022/10/26 08:37:14;;;;;;;9.95;8.95;;;12.10;99.90;;;;;;4997020;28;20038;-78
2022/10/26 08:39:40;;;;;;;11.35;8.77;;;12.20;99.90;;;;;;4997971;28;20097;-78
2022/10/26 08:42:12;;;;;;;13.55;8.73;;;12.30;99.90;;;;;;4980629;28;20049;-78
2022/10/26 08:45:03;;;;;;;9.23;7.65;;;12.40;99.90;;;;;;5002791;28;20049;-78
2022/10/26 08:47:41;;;;;;;13.40;7.57;;;12.50;99.90;;;;;;4981814;28;20108;-79
2022/10/26 08:50:23;;;;;;;10.45;7.53;;;12.60;99.90;;;;;;5002030;28;20455;-78
2022/10/26 08:53:11;;;;;;;10.93;6.82;;;12.70;99.90;;;;;;4994238;28;20485;-78
2022/10/26 08:55:49;;;;;;;8.27;7.00;;;12.90;99.90;;;;;;4978526;28;20457;-77
2022/10/26 08:58:18;;;;;;;8.75;6.50;;;13.00;99.90;;;;;;5003906;28;20120;-78
2022/10/26 09:00:47;;;;;;;7.78;6.25;;;13.10;99.90;;;;;;4978172;28;20048;-78
2022/10/26 09:03:14;;;;;;;10.63;6.47;;;13.20;99.90;;;;;;4999103;28;20480;-79
2022/10/26 09:05:58;;;;;;;8.05;6.25;;;13.40;99.90;;;;;;4994243;28;20034;-80
2022/10/26 09:08:52;;;;;;;9.40;6.35;;;13.50;99.90;;;;;;4992593;28;20043;-78
2022/10/26 09:11:49;;;;;;;9.40;5.97;;;13.60;99.90;;;;;;4985417;28;20528;-78
2022/10/26 09:14:27;;;;;;;7.47;5.43;;;13.70;99.90;;;;;;4919097;28;20046;-79
2022/10/26 09:17:14;;;;;;;9.38;5.63;;;13.80;99.90;;;;;;4986826;28;20425;-79
2022/10/26 09:20:01;;;;;;;7.53;6.15;;;13.90;99.90;;;;;;4995274;28;20041;-77
2022/10/26 09:22:53;;;;;;;8.57;5.78;;;14.00;99.90;;;;;;4977963;28;20124;-75
2022/10/26 09:25:21;;;;;;;6.57;5.50;;;14.20;99.90;;;;;;4977846;28;20568;-75
2022/10/26 09:27:57;;;;;;;6.40;5.38;;;14.30;99.90;;;;;;4999562;28;20046;-75
2022/10/26 09:30:23;;;;;;;6.05;5.18;;;14.60;99.90;;;;;;4994198;28;20560;-75
2022/10/26 09:32:50;;;;;;;6.57;5.13;;;14.90;99.90;;;;;;4995236;28;20125;-75
2022/10/26 09:35:25;;;;;;;6.63;4.28;;;15.10;99.90;;;;;;4997837;28;20037;-75
2022/10/26 09:37:55;;;;;;;6.82;4.03;;;15.40;99.90;;;;;;4992705;28;20084;-75
2022/10/26 09:40:35;;;;;;;7.45;3.35;;;15.60;99.90;;;;;;4994944;28;20211;-76
2022/10/26 09:43:23;;;;;;;5.20;3.72;;;15.80;99.90;;;;;;4977068;28;20044;-75
2022/10/26 09:45:52;;;;;;;6.72;2.83;;;16.00;99.90;;;;;;4975111;28;20061;-75
2022/10/26 09:48:48;;;;;;;5.50;2.90;;;16.20;99.90;;;;;;4994004;28;20084;-76
2022/10/26 09:51:15;;;;;;;5.38;3.08;;;16.30;99.90;;;;;;4979861;28;20516;-76
2022/10/26 09:53:41;;;;;;;5.63;3.15;;;16.40;99.90;;;;;;4991256;28;20070;-76
2022/10/26 09:56:10;;;;;;;3.30;2.60;;;16.50;99.90;;;;;;4992031;28;20140;-75
2022/10/26 09:58:41;;;;;;;7.28;2.75;;;16.60;99.90;;;;;;4994323;28;20037;-76
2022/10/26 10:01:31;;;;;;;3.63;2.50;;;16.80;99.90;;;;;;4993837;28;20447;-75
2022/10/26 10:04:12;;;;;;;4.22;2.80;;;16.90;99.90;;;;;;4993395;28;20097;-75
2022/10/26 10:06:42;;;;;;;4.15;2.50;;;17.00;99.90;;;;;;4997549;28;20095;-75
2022/10/26 10:09:15;;;;;;;6.03;2.50;;;17.10;99.90;;;;;;4999070;28;20112;-75
2022/10/26 10:11:53;;;;;;;;;;;17.20;99.90;;;;;;4979236;28;20412;-77
2022/10/26 10:14:23;;;;;;;4.85;2.45;;;17.20;99.90;;;;;;4994283;28;20379;-75
2022/10/26 10:17:00;;;;;;;3.97;2.28;;;17.20;99.90;;;;;;4995059;28;20069;-75
2022/10/26 10:19:35;;;;;;;4.70;2.00;;;17.30;99.90;;;;;;4983793;28;20399;-76
2022/10/26 10:22:17;;;;;;;8.75;2.17;;;17.30;99.90;;;;;;5002898;28;20109;-76
2022/10/26 10:24:56;;;;;;;6.70;1.90;;;17.40;99.90;;;;;;5005944;28;20385;-75
2022/10/26 10:27:23;;;;;;;4.35;2.10;;;17.60;99.90;;;;;;4980880;28;20092;-76
2022/10/26 10:29:54;;;;;;;5.07;2.20;;;17.70;99.90;;;;;;5002688;28;20412;-76
2022/10/26 10:32:23;;;;;;;2.92;2.35;;;18.00;99.90;;;;;;5001091;28;20476;-77
2022/10/26 10:34:51;;;;;;;6.55;2.35;;;18.10;99.90;;;;;;4982845;28;20084;-76
2022/10/26 10:37:23;;;;;;;4.50;2.45;;;18.00;99.90;;;;;;4985135;28;20045;-76
2022/10/26 10:39:48;;;;;;;5.28;2.53;;;17.90;99.90;;;;;;5001021;28;20172;-77
2022/10/26 10:42:22;;;;;;;6.85;3.08;;;17.90;99.90;;;;;;4993314;28;20144;-78
2022/10/26 10:44:52;;;;;;;6.20;2.30;;;17.80;99.90;;;;;;4978715;28;20404;-78
2022/10/26 10:47:22;;;;;;;4.38;2.15;;;17.90;99.90;;;;;;4994101;28;20041;-76
2022/10/26 10:49:54;;;;;;;4.53;2.45;;;17.80;99.90;;;;;;4993915;28;20057;-75
2022/10/26 10:52:32;;;;;;;4.63;2.40;;;17.70;99.90;;;;;;4970378;28;20034;-76
2022/10/26 10:55:13;;;;;;;4.32;2.40;;;17.70;99.90;;;;;;4978180;28;20046;-76
2022/10/26 10:57:56;;;;;;;3.95;2.50;;;17.60;99.90;;;;;;4992610;28;20071;-76
2022/10/26 11:00:23;;;;;;;6.03;2.20;;;17.60;99.90;;;;;;4992266;28;20041;-76
2022/10/26 11:03:04;;;;;;;5.53;2.67;;;17.60;99.90;;;;;;4993910;28;20065;-76
2022/10/26 11:05:59;;;;;;;4.28;2.30;;;17.70;99.90;;;;;;4994560;28;20049;-76
2022/10/26 11:08:24;;;;;;;4.47;2.88;;;17.80;99.90;;;;;;4985698;28;20056;-77
2022/10/26 11:11:12;;;;;;;3.78;2.30;;;17.80;99.90;;;;;;4990697;28;20046;-77
2022/10/26 11:13:49;;;;;;;5.50;2.38;;;17.80;99.90;;;;;;4996718;28;20069;-77
2022/10/26 11:16:43;;;;;;;4.82;2.45;;;17.90;99.90;;;;;;4981665;28;20042;-77
2022/10/26 11:19:46;;;;;;;4.20;2.28;;;18.00;99.90;;;;;;4976746;28;20054;-77
2022/10/26 11:22:15;;;;;;;5.53;2.45;;;18.20;99.90;;;;;;4988403;28;20042;-77
2022/10/26 11:24:49;;;;;;;4.20;2.10;;;18.40;99.90;;;;;;5006830;28;20041;-77
2022/10/26 11:27:20;;;;;;;5.78;2.60;;;18.40;99.90;;;;;;4999660;28;20435;-77
2022/10/26 11:30:02;;;;;;;3.85;2.03;;;18.50;99.90;;;;;;4992623;28;20042;-77
2022/10/26 11:32:45;;;;;;;5.20;2.40;;;18.50;99.90;;;;;;4986970;28;20040;-77
2022/10/26 11:35:11;;;;;;;5.00;2.33;;;18.60;99.90;;;;;;4985331;28;20044;-77
2022/10/26 11:37:55;;;;;;;4.20;2.22;;;18.60;99.90;;;;;;4976531;28;20038;-77
2022/10/26 11:40:27;;;;;;;3.95;2.20;;;18.70;99.90;;;;;;4993754;28;20081;-77
2022/10/26 11:43:08;;;;;;;4.05;1.90;;;18.80;99.90;;;;;;4993348;28;20046;-78
2022/10/26 11:45:38;;;;;;;4.90;2.35;;;18.90;99.90;;;;;;4992603;28;20424;-77
2022/10/26 11:48:18;;;;;;;6.07;2.60;;;19.00;99.90;;;;;;4986578;28;20507;-77
2022/10/26 11:50:52;;;;;;;5.35;2.50;;;19.10;99.90;;;;;;5013645;28;20045;-77
2022/10/26 11:53:30;;;;;;;6.32;2.22;;;19.00;99.90;;;;;;5008395;28;20030;-76
2022/10/26 11:55:57;;;;;;;5.65;2.65;;;19.10;99.90;;;;;;4995531;28;20492;-77
2022/10/26 11:58:25;;;;;;;5.35;2.40;;;19.10;99.90;;;;;;4984402;28;20040;-77
2022/10/26 12:01:06;;;;;;;4.40;2.50;;;19.10;99.90;;;;;;4989129;28;20056;-77
2022/10/26 12:03:36;;;;;;;4.13;2.33;;;19.20;99.90;;;;;;4990276;28;20508;-77
2022/10/26 12:06:02;;;;;;;4.55;2.83;;;19.20;99.90;;;;;;4990972;28;20050;-76
2022/10/26 12:08:44;;;;;;;4.65;2.45;;;19.30;99.90;;;;;;4977047;28;20042;-77
2022/10/26 12:11:39;;;;;;;4.15;2.85;;;19.30;99.90;;;;;;4990563;28;20046;-77
2022/10/26 12:14:28;;;;;;;4.53;2.70;;;19.40;99.90;;;;;;4994684;28;20496;-77
2022/10/26 12:17:23;;;;;;;6.47;2.55;;;19.50;99.90;;;;;;4975529;28;20084;-77
2022/10/26 12:19:55;;;;;;;5.43;2.58;;;19.60;99.90;;;;;;4993957;28;20395;-77
2022/10/26 12:22:25;;;;;;;4.97;2.75;;;19.60;99.90;;;;;;4994578;28;20068;-77
2022/10/26 12:25:07;;;;;;;5.18;2.60;;;19.50;99.90;;;;;;4991627;28;20077;-78
2022/10/26 12:27:39;;;;;;;5.57;2.67;;;19.30;99.90;;;;;;4989455;28;20034;-77
2022/10/26 12:30:11;;;;;;;4.30;2.22;;;19.20;99.90;;;;;;5001598;28;20112;-77
2022/10/26 12:32:36;;;;;;;4.88;2.13;;;19.20;99.90;;;;;;4992096;28;20132;-77
2022/10/26 12:35:23;;;;;;;7.03;2.97;;;19.10;99.90;;;;;;4977266;28;20168;-78
2022/10/26 12:37:49;;;;;;;3.90;2.25;;;19.10;99.90;;;;;;4990384;28;20455;-77
2022/10/26 12:40:31;;;;;;;6.88;3.03;;;19.10;99.90;;;;;;4992423;28;20045;-78
2022/10/26 12:43:10;;;;;;;6.75;3.17;;;19.30;99.90;;;;;;4997418;28;20514;-78
2022/10/26 12:45:36;;;;;;;6.90;3.53;;;19.30;99.90;;;;;;4993192;28;20049;-77
2022/10/26 12:48:03;;;;;;;7.35;3.58;;;19.30;99.90;;;;;;4980180;28;20046;-78
2022/10/26 12:50:29;;;;;;;7.40;4.07;;;19.10;99.90;;;;;;4989567;28;20038;-77
2022/10/26 12:53:09;;;;;;;5.03;2.88;;;19.10;99.90;;;;;;4994351;28;20481;-76
2022/10/26 12:55:53;;;;;;;5.68;3.47;;;19.00;99.90;;;;;;4996235;28;20038;-76
2022/10/26 12:58:37;;;;;;;6.35;3.88;;;18.90;99.90;;;;;;4994609;28;20038;-76
2022/10/26 13:01:05;;;;;;;6.05;4.15;;;18.90;99.90;;;;;;4995735;28;20120;-77
2022/10/26 13:03:47;;;;;;;8.52;4.07;;;18.90;99.90;;;;;;4994333;28;20471;-77
2022/10/26 13:06:23;;;;;;;10.17;4.10;;;19.00;99.90;;;;;;4979613;28;20037;-77